Time;durP1;ratioP1;P1;durP2;ratioP2;P2;SDS_P1;SDS_P2;PMS_P1;PMS_P2;Temp;Humidity;BMP_temperature;BMP_pressure;BME280_temperature;BME280_humidity;BME280_pressure;Samples;Min_cycle;Max_cycle;Signal;HPM_P1;HPM_P2
2022/12/15 00:41:02;;;;;;;;;;;-1.50;99.90;;;-2.66;100.00;96014.34;5064707;28;19973;-44
2022/12/15 00:43:33;;;;;;;;;;;-1.60;99.90;;;-2.72;100.00;96021.28;5047389;28;19924;-45
2022/12/15 00:48:44;;;;;;;;;;;-1.60;99.90;;;-2.81;100.00;96033.41;5065981;28;20374;-44
2022/12/15 00:51:10;;;;;;;;;;;-1.60;99.90;;;-2.89;100.00;96034.28;5065115;28;19920;-46
2022/12/15 01:21:07;;;;;;;;;;;-1.80;99.90;;;-2.98;100.00;96052.41;5040764;28;20351;-46
2022/12/15 01:23:33;;;;;;;;;;;-1.80;99.90;;;-3.05;100.00;96039.53;5061413;28;19970;-45
2022/12/15 01:25:58;;;;;;;;;;;-1.80;99.90;;;-3.10;100.00;96063.63;5042488;28;19912;-47
2022/12/15 01:28:24;;;;;;;;;;;-1.90;99.90;;;-3.11;100.00;96066.22;5067133;28;19978;-46
2022/12/15 01:30:50;;;;;;;;;;;-1.90;99.90;;;-3.14;100.00;96063.66;5052394;28;20463;-44
2022/12/15 01:33:17;;;;;;;;;;;-1.90;99.90;;;-3.16;100.00;96062.81;5056376;28;19923;-45
2022/12/15 01:35:43;;;;;;;;;;;-2.00;99.90;;;-3.21;100.00;96068.00;5060267;28;20256;-48
2022/12/15 01:38:09;;;;;;;;;;;-2.00;99.90;;;-3.31;100.00;96054.28;5057818;28;20042;-49
2022/12/15 01:40:44;;;;;;;;;;;-2.00;99.90;;;-3.21;100.00;96047.38;5059919;28;19912;-47
2022/12/15 01:43:16;;;;;;;;;;;-2.00;99.90;;;-3.08;100.00;96056.75;5068973;22;19923;-41
2022/12/15 01:46:01;;;;;;;;;;;-1.90;99.90;;;-3.03;100.00;96056.75;5055744;28;19927;-40
2022/12/15 01:48:35;;;;;;;;;;;-1.90;99.90;;;-2.99;100.00;96068.75;5060694;28;19951;-40
2022/12/15 01:51:09;;;;;;;;;;;-1.90;99.90;;;-2.95;100.00;96064.44;5063849;28;19924;-40
2022/12/15 01:53:47;;;;;;;;;;;-1.80;99.90;;;-2.93;100.00;96067.84;5046870;28;19942;-40
2022/12/15 01:56:12;;;;;;;;;;;-1.80;99.90;;;-2.90;100.00;96063.53;5026149;28;19920;-40
2022/12/15 01:58:41;;;;;;;;;;;-1.80;99.90;;;-2.94;100.00;96061.84;5046927;28;19908;-40
2022/12/15 02:01:07;;;;;;;;;;;-1.70;99.90;;;-2.91;100.00;96079.00;5025893;28;19995;-40
2022/12/15 02:03:33;;;;;;;;;;;-1.70;99.90;;;-2.90;100.00;96067.84;5045707;28;19919;-40
2022/12/15 02:06:00;;;;;;;;;;;-1.70;99.90;;;-2.89;100.00;96067.84;5037851;28;19989;-40
2022/12/15 02:08:25;;;;;;;;;;;-1.70;99.90;;;-2.93;100.00;96067.84;5026919;28;19974;-40
2022/12/15 02:11:11;;;;;;;;;;;-1.70;99.90;;;-2.86;100.00;96076.41;5024167;28;20322;-40
2022/12/15 02:14:04;;;;;;;;;;;-1.70;99.90;;;-2.84;100.00;96077.25;5041406;28;19922;-40
2022/12/15 02:16:44;;;;;;;;;;;-1.70;99.90;;;-2.88;100.00;96077.28;5044607;28;19919;-40
2022/12/15 02:20:04;;;;;;;;;;;-1.70;99.90;;;-2.79;100.00;96083.25;5028013;28;20333;-40
2022/12/15 02:23:07;;;;;;;;;;;-1.70;99.90;;;-2.79;100.00;96091.84;4981286;28;19928;-40
2022/12/15 02:25:52;;;;;;;;;;;-1.70;99.90;;;-2.84;100.00;96098.75;5041213;28;19936;-40
2022/12/15 02:28:46;;;;;;;;;;;-1.70;99.90;;;-2.90;100.00;96089.31;5046747;28;20371;-40
2022/12/15 02:34:43;;;;;;;;;;;-1.70;99.90;;;-2.94;100.00;96086.78;5029193;28;19931;-40
2022/12/15 02:37:16;;;;;;;;;;;-1.80;99.90;;;-2.98;100.00;96080.78;5047115;28;19980;-40
2022/12/15 02:39:42;;;;;;;;;;;-1.80;99.90;;;-3.04;100.00;96075.63;5025572;28;20098;-40
2022/12/15 02:42:09;;;;;;;;;;;-1.80;99.90;;;-3.02;100.00;96093.69;5046391;28;20009;-40
2022/12/15 02:44:46;;;;;;;;;;;-1.80;99.90;;;-2.95;100.00;96096.22;5042033;28;19930;-39
2022/12/15 02:47:33;;;;;;;;;;;-1.80;99.90;;;-2.95;100.00;96085.06;5040227;28;20375;-39
2022/12/15 02:49:59;;;;;;;;;;;-1.80;99.90;;;-2.93;100.00;96106.53;5046330;28;20013;-39
2022/12/15 02:52:59;;;;;;;;;;;-1.80;99.90;;;-2.94;100.00;96107.44;5047446;28;20392;-40
2022/12/15 02:55:25;;;;;;;;;;;-1.80;99.90;;;-2.94;100.00;96099.69;4997867;28;19920;-39
2022/12/15 02:57:53;;;;;;;;;;;-1.80;99.90;;;-2.94;100.00;96105.69;5047421;28;20482;-40
2022/12/15 03:00:19;;;;;;;;;;;-1.80;99.90;;;-2.95;100.00;96108.28;5045071;28;19920;-40
2022/12/15 03:02:49;;;;;;;;;;;-1.80;99.90;;;-2.97;100.00;96108.28;5042356;28;20257;-40
2022/12/15 03:05:15;;;;;;;;;;;-1.80;99.90;;;-3.08;100.00;96087.69;5044530;28;20375;-39
2022/12/15 03:07:41;;;;;;;;;;;-1.80;99.90;;;-2.94;100.00;96103.13;5029230;28;20016;-40
2022/12/15 03:10:11;;;;;;;;;;;-1.80;99.90;;;-2.93;100.00;96103.97;5043876;28;19924;-40
2022/12/15 03:12:37;;;;;;;;;;;-1.80;99.90;;;-2.95;100.00;96101.38;5028167;28;19987;-40
2022/12/15 03:15:03;;;;;;;;;;;-1.80;99.90;;;-2.90;100.00;96104.81;5045588;28;19912;-40
2022/12/15 03:17:29;;;;;;;;;;;-1.80;99.90;;;-2.83;100.00;96112.53;5046775;28;19926;-40
2022/12/15 03:19:54;;;;;;;;;;;-1.70;99.90;;;-2.82;100.00;96114.22;5045403;28;19920;-40
2022/12/15 03:22:20;;;;;;;;;;;-1.70;99.90;;;-2.85;100.00;96112.53;5043682;28;20419;-40
2022/12/15 03:24:47;;;;;;;;;;;-1.70;99.90;;;-2.88;100.00;96109.97;5042218;28;20570;-40
2022/12/15 03:27:13;;;;;;;;;;;-1.70;99.90;;;-2.83;100.00;96125.44;5029442;28;19921;-40
2022/12/15 03:29:38;;;;;;;;;;;-1.70;99.90;;;-2.84;100.00;96114.22;5041096;28;20380;-40
2022/12/15 03:32:04;;;;;;;;;;;-1.70;99.90;;;-2.89;100.00;96108.22;5036217;28;20232;-39
2022/12/15 03:34:30;;;;;;;;;;;-1.70;99.90;;;-2.84;100.00;96109.06;5029162;28;20057;-39
2022/12/15 03:36:56;;;;;;;;;;;-1.70;99.90;;;-2.82;100.00;96112.50;5038289;28;20284;-40
2022/12/15 03:39:21;;;;;;;;;;;-1.70;99.90;;;-2.80;100.00;96117.66;5043015;28;20291;-40
2022/12/15 03:41:47;;;;;;;;;;;-1.70;99.90;;;-2.80;100.00;96130.56;5044039;28;19924;-39
2022/12/15 03:44:12;;;;;;;;;;;-1.70;99.90;;;-2.77;100.00;96127.97;5038235;28;19916;-39
2022/12/15 03:46:38;;;;;;;;;;;-1.60;99.90;;;-2.91;100.00;96105.69;5041336;28;19923;-39
2022/12/15 03:49:04;;;;;;;;;;;-1.70;99.90;;;-2.73;100.00;96133.13;5046351;28;19994;-40
2022/12/15 03:51:29;;;;;;;;;;;-1.60;99.90;;;-2.70;100.00;96124.50;5038745;28;20374;-40
2022/12/15 03:53:55;;;;;;;;;;;-1.60;99.90;;;-2.66;100.00;96131.34;5039720;28;19922;-40
2022/12/15 03:56:20;;;;;;;;;;;-1.60;99.90;;;-2.66;100.00;96133.91;5043064;28;19965;-40
2022/12/15 03:58:46;;;;;;;;;;;-1.50;99.90;;;-2.68;100.00;96148.56;5040930;28;19958;-40
2022/12/15 04:01:22;;;;;;;;;;;-1.50;99.90;;;-2.69;100.00;96157.19;5043054;28;20085;-40
2022/12/15 04:03:47;;;;;;;;;;;-1.50;99.90;;;-2.71;100.00;96157.19;5043713;28;20412;-40
2022/12/15 04:06:13;;;;;;;;;;;-1.60;99.90;;;-2.72;100.00;96141.72;5043245;28;20218;-40
2022/12/15 04:08:38;;;;;;;;;;;-1.60;99.90;;;-2.64;100.00;96154.56;5043463;28;19919;-40
2022/12/15 04:11:04;;;;;;;;;;;-1.50;99.90;;;-2.67;100.00;96150.28;5040629;28;19994;-40
2022/12/15 04:13:30;;;;;;;;;;;-1.50;99.90;;;-2.60;100.00;96164.88;5035262;28;19924;-40
2022/12/15 04:15:55;;;;;;;;;;;-1.50;99.90;;;-2.59;100.00;96165.72;5042847;28;19912;-39
2022/12/15 04:18:21;;;;;;;;;;;-1.50;99.90;;;-2.66;100.00;96152.00;5038202;28;20187;-40
2022/12/15 04:20:47;;;;;;;;;;;-1.50;99.90;;;-2.59;100.00;96166.56;5043656;28;19923;-40
2022/12/15 04:23:13;;;;;;;;;;;-1.40;99.90;;;-2.53;100.00;96179.47;5045016;28;20223;-39
2022/12/15 05:31:47;;;;;;;;;;;-1.60;99.90;;;-2.64;100.00;96188.13;5036927;28;19923;-39
2022/12/15 05:34:13;;;;;;;;;;;-1.50;99.90;;;-2.69;100.00;96183.00;5036050;28;19920;-39
2022/12/15 05:36:39;;;;;;;;;;;-1.50;99.90;;;-2.70;100.00;96179.53;5038273;28;19927;-40
2022/12/15 05:39:04;;;;;;;;;;;-1.50;99.90;;;-2.65;100.00;96181.25;5039377;28;19920;-39
2022/12/15 05:41:30;;;;;;;;;;;-1.50;99.90;;;-2.63;100.00;96185.53;5036452;28;20602;-39
2022/12/15 05:43:56;;;;;;;;;;;-1.50;99.90;;;-2.61;100.00;96190.69;5037125;28;20000;-39
2022/12/15 05:46:21;;;;;;;;;;;-1.50;99.90;;;-2.60;100.00;96180.38;5039941;28;19920;-39
2022/12/15 05:48:47;;;;;;;;;;;-1.50;99.90;;;-2.55;100.00;96182.91;5025401;28;20337;-39
2022/12/15 05:51:13;;;;;;;;;;;-1.50;99.90;;;-2.57;100.00;96193.22;5033000;28;19923;-39
2022/12/15 05:53:39;;;;;;;;;;;-1.40;99.90;;;-2.61;100.00;96195.84;5046841;28;19926;-40
2022/12/15 05:56:10;;;;;;;;;;;-1.50;99.90;;;-2.61;100.00;96194.13;5026243;28;20143;-39
2022/12/15 05:58:36;;;;;;;;;;;-1.50;99.90;;;-2.61;100.00;96191.53;5041179;28;19996;-40
2022/12/15 06:01:21;;;;;;;;;;;-1.50;99.90;;;-2.57;100.00;96194.97;5041298;28;20010;-40
2022/12/15 06:03:47;;;;;;;;;;;-1.40;99.90;;;-2.59;100.00;96178.63;5037342;28;20146;-40
2022/12/15 06:06:12;;;;;;;;;;;-1.40;99.90;;;-2.55;100.00;96190.66;5043249;28;19920;-40
2022/12/15 06:08:40;;;;;;;;;;;-1.40;99.90;;;-2.55;100.00;96183.78;5044251;28;20295;-40
2022/12/15 06:11:06;;;;;;;;;;;-1.40;99.90;;;-2.49;100.00;96180.31;5044390;28;20392;-40
2022/12/15 06:13:33;;;;;;;;;;;-1.40;99.90;;;-2.53;100.00;96187.22;5045469;28;19970;-40
2022/12/15 06:16:01;;;;;;;;;;;-1.40;99.90;;;-2.59;100.00;96204.44;5045642;28;19920;-39
2022/12/15 06:18:29;;;;;;;;;;;-1.40;99.90;;;-2.58;100.00;96201.88;5025038;28;20687;-40
2022/12/15 06:21:15;;;;;;;;;;;-1.40;99.90;;;-2.56;100.00;96210.44;5027934;28;20380;-39
2022/12/15 06:23:41;;;;;;;;;;;-1.50;99.90;;;-2.58;100.00;96204.44;5025564;28;19955;-40
2022/12/15 06:26:21;;;;;;;;;;;-1.50;99.90;;;-2.54;100.00;96194.97;5033404;28;20019;-39
2022/12/15 06:28:48;;;;;;;;;;;-1.40;99.90;;;-2.67;100.00;96172.63;5031797;28;19913;-40
2022/12/15 06:31:16;;;;;;;;;;;-1.50;99.90;;;-2.61;100.00;96203.59;5029150;28;19920;-40
2022/12/15 06:33:42;;;;;;;;;;;-1.40;99.90;;;-2.53;100.00;96214.72;5039231;28;19928;-40
2022/12/15 06:36:11;;;;;;;;;;;-1.40;99.90;;;-2.53;100.00;96200.13;5032936;28;19920;-40
2022/12/15 06:38:37;;;;;;;;;;;-1.40;99.90;;;-2.49;100.00;96206.13;5031945;28;20020;-39
2022/12/15 06:41:04;;;;;;;;;;;-1.40;99.90;;;-2.47;100.00;96206.13;5040982;28;20364;-40
2022/12/15 06:43:30;;;;;;;;;;;-1.40;99.90;;;-2.45;100.00;96201.81;5044033;28;20353;-40
2022/12/15 06:45:56;;;;;;;;;;;-1.40;99.90;;;-2.45;100.00;96206.97;5039905;28;20286;-40
2022/12/15 06:48:23;;;;;;;;;;;-1.40;99.90;;;-2.46;100.00;96205.25;5037518;28;20442;-40
2022/12/15 06:50:49;;;;;;;;;;;-1.40;99.90;;;-2.50;100.00;96197.50;5039924;28;19922;-40
2022/12/15 06:53:16;;;;;;;;;;;-1.40;99.90;;;-2.55;100.00;96211.31;5048025;28;20007;-40
2022/12/15 06:55:42;;;;;;;;;;;-1.40;99.90;;;-2.53;100.00;96192.38;5044409;28;19920;-40
2022/12/15 06:58:08;;;;;;;;;;;-1.40;99.90;;;-2.57;100.00;96184.63;5040438;28;19912;-40
2022/12/15 07:00:35;;;;;;;;;;;-1.40;99.90;;;-2.62;100.00;96165.75;5049627;28;19941;-40
2022/12/15 07:03:02;;;;;;;;;;;-1.40;99.90;;;-2.51;100.00;96187.22;5050038;28;19924;-39
2022/12/15 07:05:27;;;;;;;;;;;-1.40;99.90;;;-2.54;100.00;96190.66;5048859;28;19920;-40
2022/12/15 07:07:53;;;;;;;;;;;-1.40;99.90;;;-2.57;100.00;96200.13;5043159;28;19927;-40
2022/12/15 07:10:19;;;;;;;;;;;-1.40;99.90;;;-2.65;100.00;96197.59;5049477;28;20372;-40
2022/12/15 07:12:44;;;;;;;;;;;-1.50;99.90;;;-2.69;100.00;96204.50;5050232;28;19920;-40
2022/12/15 07:15:10;;;;;;;;;;;-1.50;99.90;;;-2.66;100.00;96203.59;5053887;28;19916;-40
2022/12/15 07:17:36;;;;;;;;;;;-1.50;99.90;;;-2.61;100.00;96211.34;5054490;28;19959;-41
2022/12/15 07:20:05;;;;;;;;;;;-1.50;99.90;;;-2.62;100.00;96201.88;5052296;28;19920;-41
2022/12/15 07:22:31;;;;;;;;;;;-1.50;99.90;;;-2.65;100.00;96194.16;5054556;28;19916;-41
2022/12/15 07:24:56;;;;;;;;;;;-1.50;99.90;;;-2.57;100.00;96206.13;5052386;28;19926;-41
2022/12/15 07:27:22;;;;;;;;;;;-1.50;99.90;;;-2.57;100.00;96213.88;5053889;28;19974;-41
2022/12/15 07:29:48;;;;;;;;;;;-1.40;99.90;;;-2.43;100.00;96221.56;5052280;28;20225;-41
2022/12/15 07:32:14;;;;;;;;;;;-1.30;99.90;;;-2.47;100.00;96199.22;5051841;28;19921;-41
2022/12/15 07:34:40;;;;;;;;;;;-1.30;99.90;;;-2.31;100.00;96218.09;5056910;28;19928;-41
2022/12/15 07:37:06;;;;;;;;;;;-1.20;99.90;;;-2.27;100.00;96218.94;5053297;28;20383;-41
2022/12/15 07:39:32;;;;;;;;;;;-1.10;99.90;;;-2.22;100.00;96222.34;5053355;28;19946;-40
2022/12/15 07:41:58;;;;;;;;;;;-1.10;99.90;;;-2.16;100.00;96227.47;5067418;22;19947;-44
2022/12/15 07:44:23;;;;;;;;;;;-1.10;99.90;;;-2.15;100.00;96222.28;5047105;28;19926;-45
2022/12/15 07:46:49;;;;;;;;;;;-1.00;99.90;;;-2.08;100.00;96215.38;5054232;28;20030;-43
2022/12/15 07:49:16;;;;;;;;;;;-1.00;99.90;;;-2.09;100.00;96217.97;5056323;28;20537;-46
2022/12/15 07:51:42;;;;;;;;;;;-1.00;99.90;;;-2.04;100.00;96224.81;5053537;28;19919;-44
2022/12/15 07:54:10;;;;;;;;;;;-0.90;99.90;;;-2.01;100.00;96217.03;5050927;28;19916;-44
2022/12/15 07:56:39;;;;;;;;;;;-0.90;99.90;;;-1.95;100.00;96222.16;5052788;28;19927;-44
2022/12/15 07:59:05;;;;;;;;;;;-0.90;99.90;;;-1.96;100.00;96229.91;5034788;28;19916;-44
2022/12/15 08:01:31;;;;;;;;;;;-0.80;99.90;;;-1.88;100.00;96242.78;5051744;28;19912;-44
2022/12/15 08:03:57;;;;;;;;;;;-0.80;99.90;;;-1.86;100.00;96241.06;5036208;28;19924;-47
2022/12/15 08:06:23;;;;;;;;;;;-0.80;99.90;;;-1.79;100.00;96243.59;5055647;28;19920;-45
2022/12/15 08:08:49;;;;;;;;;;;-0.70;99.90;;;-1.74;100.00;96256.50;5054528;28;19919;-44
2022/12/15 08:11:15;;;;;;;;;;;-0.70;99.90;;;-1.80;100.00;96244.44;5055920;28;19913;-46
2022/12/15 08:13:42;;;;;;;;;;;-0.60;99.90;;;-1.67;100.00;96262.44;5054197;28;20316;-43
2022/12/15 08:16:09;;;;;;;;;;;-0.60;99.90;;;-1.67;100.00;96259.88;5053278;28;19916;-43
2022/12/15 08:18:34;;;;;;;;;;;-0.50;99.90;;;-1.62;100.00;96273.63;5054511;28;20020;-43
2022/12/15 08:21:05;;;;;;;;;;;-0.50;99.90;;;-1.59;100.00;96268.44;5055829;28;19920;-44
2022/12/15 08:23:31;;;;;;;;;;;-0.50;99.90;;;-1.56;100.00;96271.00;5054682;28;19916;-44
2022/12/15 08:26:14;;;;;;;;;;;-0.50;99.90;;;-1.52;100.00;96288.22;5057026;28;20051;-45
2022/12/15 08:28:40;;;;;;;;;;;-0.40;99.90;;;-1.47;100.00;96285.56;5055022;28;19916;-44
2022/12/15 08:31:08;;;;;;;;;;;-0.40;99.90;;;-1.48;100.00;96279.56;5055213;28;19919;-44
2022/12/15 08:33:35;;;;;;;;;;;-0.30;99.90;;;-1.44;100.00;96283.81;5055031;28;19919;-45
2022/12/15 08:36:03;;;;;;;;;;;-0.30;99.90;;;-1.34;100.00;96282.03;5056447;28;19920;-43
2022/12/15 08:38:29;;;;;;;;;;;-0.30;99.90;;;-1.29;100.00;96284.56;5055446;28;19920;-43
2022/12/15 08:40:55;;;;;;;;;;;-0.20;99.90;;;-1.24;100.00;96263.00;5052932;28;19974;-43
2022/12/15 08:43:22;;;;;;;;;;;-0.10;99.90;;;-1.15;100.00;96274.97;5055688;28;20380;-44
2022/12/15 08:45:47;;;;;;;;;;;-0.10;99.90;;;-1.10;100.00;96260.25;5055440;28;19909;-44
2022/12/15 08:48:13;;;;;;;;;;;0.00;99.90;;;-1.00;100.00;96277.41;5053733;28;19932;-44
2022/12/15 08:50:45;;;;;;;;;;;0.00;99.90;;;-1.00;100.00;96267.06;5051746;28;19919;-44
2022/12/15 08:53:11;;;;;;;;;;;0.10;99.90;;;-1.07;100.00;96280.09;5052682;28;19921;-45
2022/12/15 08:55:37;;;;;;;;;;;0.10;99.90;;;-1.02;100.00;96294.69;5054521;28;19919;-47
2022/12/15 08:58:03;;;;;;;;;;;0.10;99.90;;;-1.01;100.00;96301.56;5054234;28;19908;-46
2022/12/15 09:00:28;;;;;;;;;;;0.10;99.90;;;-0.99;100.00;96298.97;5057706;28;19917;-44
2022/12/15 09:02:54;;;;;;;;;;;0.20;99.90;;;-0.97;100.00;96305.88;5052943;28;19924;-43
2022/12/15 09:05:19;;;;;;;;;;;0.20;99.90;;;-0.89;100.00;96298.03;5052461;28;20197;-43
2022/12/15 09:07:45;;;;;;;;;;;0.20;99.90;;;-0.85;100.00;96286.75;5054336;28;20296;-44
2022/12/15 09:10:11;;;;;;;;;;;0.30;99.90;;;-0.80;100.00;96274.63;5053958;28;20269;-43
2022/12/15 09:12:36;;;;;;;;;;;0.30;99.90;;;-0.77;100.00;96278.94;5054412;28;19947;-44
2022/12/15 09:15:02;;;;;;;;;;;0.40;99.90;;;-0.75;100.00;96272.00;5050556;28;19917;-44
2022/12/15 09:17:28;;;;;;;;;;;0.40;99.90;;;-0.63;100.00;96268.41;5052298;28;19920;-43
2022/12/15 09:19:53;;;;;;;;;;;0.50;99.90;;;-0.53;100.00;96277.78;5054434;28;19952;-43
2022/12/15 09:22:19;;;;;;;;;;;0.60;99.90;;;-0.42;100.00;96277.69;5054095;28;19924;-44
2022/12/15 09:24:45;;;;;;;;;;;0.70;99.90;;;-0.27;100.00;96281.81;5054424;28;20327;-43
2022/12/15 09:27:11;;;;;;;;;;;0.80;99.90;;;-0.30;100.00;96264.56;5052047;28;19916;-43
2022/12/15 09:29:36;;;;;;;;;;;0.90;99.90;;;-0.27;100.00;96246.41;5052220;28;20249;-43
2022/12/15 09:32:03;;;;;;;;;;;0.90;99.90;;;-0.10;100.00;96281.63;5035028;28;20358;-43
2022/12/15 09:34:29;;;;;;;;;;;1.00;99.90;;;-0.13;100.00;96281.66;5048792;28;19920;-42
2022/12/15 09:36:55;;;;;;;;;;;1.10;99.90;;;-0.12;100.00;96279.03;5052074;28;20041;-43
2022/12/15 09:39:21;;;;;;;;;;;1.00;99.90;;;-0.21;100.00;96295.56;5053421;28;19924;-43
2022/12/15 09:41:56;;;;;;;;;;;1.00;99.90;;;-0.37;100.00;96288.84;5046920;28;19912;-42
2022/12/15 09:44:23;;;;;;;;;;;1.00;99.90;;;-0.38;100.00;96281.94;5047062;28;19923;-43
2022/12/15 09:46:58;;;;;;;;;;;0.90;99.90;;;-0.27;100.00;96282.69;5051227;28;20323;-42
2022/12/15 09:49:29;;;;;;;;;;;0.90;99.90;;;-0.30;100.00;96274.94;5053390;28;19920;-42
2022/12/15 09:52:19;;;;;;;;;;;0.90;99.90;;;-0.15;100.00;96286.84;5054915;28;19947;-43
2022/12/15 09:54:45;;;;;;;;;;;1.00;99.90;;;-0.03;100.00;96280.66;5036789;28;19912;-43
2022/12/15 09:57:18;;;;;;;;;;;1.10;99.90;;;0.09;100.00;96282.22;5051704;28;20249;-43
2022/12/15 09:59:57;;;;;;;;;;;1.20;99.90;;;0.13;100.00;96282.16;5052767;28;19908;-42
2022/12/15 10:03:00;;;;;;;;;;;1.30;99.90;;;0.06;100.00;96288.31;5051710;28;19985;-42
2022/12/15 10:05:49;;;;;;;;;;;1.30;99.90;;;-0.01;100.00;96271.13;5047616;28;19927;-43
2022/12/15 10:08:15;;;;;;;;;;;1.20;99.90;;;0.12;100.00;96289.94;5051989;28;19916;-44
2022/12/15 10:10:44;;;;;;;;;;;1.30;99.90;;;0.24;100.00;96286.34;5054992;28;20299;-44
2022/12/15 10:13:18;;;;;;;;;;;1.30;99.90;;;0.26;100.00;96284.59;5051806;28;19917;-43
2022/12/15 10:15:57;;;;;;;;;;;1.30;99.90;;;0.25;100.00;96280.25;5051877;28;19916;-42
2022/12/15 10:18:30;;;;;;;;;;;1.30;99.90;;;0.23;100.00;96279.44;5050546;28;19920;-42
2022/12/15 10:20:59;;;;;;;;;;;1.30;99.90;;;0.17;100.00;96276.03;5035430;28;19916;-42
2022/12/15 10:23:24;;;;;;;;;;;1.20;99.90;;;0.06;100.00;96264.97;5037743;28;19946;-42
2022/12/15 10:26:18;;;;;;;;;;;1.20;99.90;;;0.16;100.00;96286.44;5052328;28;20234;-42
2022/12/15 10:29:08;;;;;;;;;;;1.20;99.90;;;-0.08;100.00;96292.81;5052446;28;19948;-42
2022/12/15 10:31:38;;;;;;;;;;;1.10;99.90;;;-0.17;100.00;96291.19;5039351;28;19963;-43
2022/12/15 10:34:23;;;;;;;;;;;1.00;99.90;;;-0.12;100.00;96278.19;5047471;28;20043;-42
2022/12/15 10:36:50;;;;;;;;;;;0.90;99.90;;;-0.07;100.00;96266.00;5051173;28;20171;-42
2022/12/15 10:39:16;;;;;;;;;;;1.00;99.90;;;0.06;100.00;96251.16;5051964;28;19917;-42
2022/12/15 10:41:42;;;;;;;;;;;1.10;99.90;;;0.13;100.00;96238.09;5054941;28;20281;-42
2022/12/15 10:44:24;;;;;;;;;;;1.20;99.90;;;0.18;100.00;96238.88;5051354;28;19920;-42
2022/12/15 10:46:56;;;;;;;;;;;1.20;99.90;;;0.05;100.00;96247.69;5052684;28;19935;-44
2022/12/15 10:49:23;;;;;;;;;;;1.20;99.90;;;-0.04;100.00;96250.41;5053909;28;19960;-43
2022/12/15 10:51:55;;;;;;;;;;;1.20;99.90;;;-0.09;100.00;96252.22;5056873;28;19916;-43
2022/12/15 10:54:21;;;;;;;;;;;1.00;99.90;;;-0.10;100.00;96251.38;5040885;28;20018;-43
2022/12/15 10:56:54;;;;;;;;;;;1.00;99.90;;;-0.08;100.00;96240.97;5041268;28;20328;-42
2022/12/15 10:59:31;;;;;;;;;;;1.00;99.90;;;-0.04;100.00;96232.28;5060363;28;19912;-42
2022/12/15 11:02:17;;;;;;;;;;;1.10;99.90;;;0.01;100.00;96229.63;5053053;28;20197;-42
2022/12/15 11:04:57;;;;;;;;;;;1.10;99.90;;;0.05;100.00;96214.00;5055495;28;19920;-43
2022/12/15 11:07:44;;;;;;;;;;;1.20;99.90;;;0.09;100.00;96210.50;5057739;28;19951;-43
2022/12/15 11:10:23;;;;;;;;;;;1.30;99.90;;;0.22;100.00;96220.69;5057280;28;20557;-42
2022/12/15 11:12:54;;;;;;;;;;;1.30;99.90;;;0.29;100.00;96219.72;5056656;28;19921;-44
2022/12/15 11:15:20;;;;;;;;;;;1.40;99.90;;;0.26;100.00;96225.78;5056948;28;20035;-43
2022/12/15 11:17:50;;;;;;;;;;;1.40;99.90;;;0.27;100.00;96221.44;5054796;28;20288;-42
2022/12/15 11:20:37;;;;;;;;;;;1.40;99.90;;;0.26;100.00;96217.16;5038782;28;19936;-43
2022/12/15 11:23:10;;;;;;;;;;;1.40;99.90;;;0.22;100.00;96197.34;5036581;28;19974;-42
2022/12/15 11:25:41;;;;;;;;;;;1.40;99.90;;;0.21;100.00;96216.38;5039345;28;20365;-44
2022/12/15 11:28:16;;;;;;;;;;;1.40;99.90;;;0.32;100.00;96210.16;5038669;28;19916;-43
2022/12/15 11:30:46;;;;;;;;;;;1.50;99.90;;;0.33;100.00;96208.41;5038119;28;19920;-42
2022/12/15 11:33:12;;;;;;;;;;;1.50;99.90;;;0.17;100.00;96212.97;5054398;28;21446;-42
2022/12/15 11:36:08;;;;;;;;;;;1.50;99.90;;;0.24;100.00;96200.78;5053615;28;19916;-42
2022/12/15 11:38:42;;;;;;;;;;;1.50;99.90;;;0.22;100.00;96216.34;5055888;28;19912;-42
2022/12/15 11:41:16;;;;;;;;;;;1.50;99.90;;;0.35;100.00;96223.06;5039932;28;20224;-43
2022/12/15 11:44:19;;;;;;;;;;;1.40;99.90;;;0.25;100.00;96212.84;5052211;28;19978;-42
2022/12/15 11:47:05;;;;;;;;;;;1.50;99.90;;;0.27;100.00;96208.50;5055189;28;20343;-43
2022/12/15 11:49:43;;;;;;;;;;;1.50;99.90;;;0.38;100.00;96209.19;5056364;28;20021;-43
2022/12/15 11:52:32;;;;;;;;;;;1.50;99.90;;;0.36;100.00;96198.00;5052507;28;19920;-45
2022/12/15 11:55:11;;;;;;;;;;;1.50;99.90;;;0.42;100.00;96203.06;5053197;28;19920;-42
2022/12/15 11:58:11;;;;;;;;;;;1.60;99.90;;;0.48;100.00;96195.19;5055803;28;19987;-42
2022/12/15 12:00:42;;;;;;;;;;;1.60;99.90;;;0.23;100.00;96175.72;5055254;28;19920;-43
2022/12/15 12:03:23;;;;;;;;;;;1.50;99.90;;;0.10;100.00;96165.53;5018342;28;19924;-43
2022/12/15 12:06:05;;;;;;;;;;;1.50;99.90;;;0.31;100.00;96173.88;5055213;28;20007;-43
2022/12/15 12:08:31;;;;;;;;;;;1.50;99.90;;;0.14;100.00;96167.22;5060260;28;19955;-43
2022/12/15 12:10:58;;;;;;;;;;;1.50;99.90;;;0.33;100.00;96146.16;5054428;28;19939;-43
2022/12/15 12:13:33;;;;;;;;;;;1.50;99.90;;;0.32;100.00;96152.22;5036774;28;19912;-44
2022/12/15 12:16:01;;;;;;;;;;;1.50;99.90;;;0.51;100.00;96139.81;5055697;28;19920;-43
2022/12/15 12:18:45;;;;;;;;;;;1.60;99.90;;;0.47;100.00;96110.47;5056045;28;19982;-43
2022/12/15 12:21:17;;;;;;;;;;;1.70;99.90;;;0.51;100.00;96139.81;5050685;28;19927;-45
2022/12/15 12:23:55;;;;;;;;;;;1.70;99.90;;;0.36;100.00;96133.16;5051843;28;20015;-42
2022/12/15 12:26:44;;;;;;;;;;;1.60;99.90;;;0.44;100.00;96125.25;5041314;28;19921;-42
2022/12/15 12:29:20;;;;;;;;;;;1.60;99.90;;;0.44;100.00;96127.84;5037408;28;20331;-43
2022/12/15 12:32:03;;;;;;;;;;;1.60;99.90;;;0.50;100.00;96135.50;5055895;28;21265;-44
2022/12/15 12:34:54;;;;;;;;;;;1.80;99.90;;;0.81;100.00;96132.34;5035885;28;19930;-42
2022/12/15 12:37:25;;;;;;;;;;;1.90;99.90;;;0.94;100.00;96118.25;5037079;28;19991;-46
2022/12/15 12:39:52;;;;;;;;;;;2.10;99.90;;;0.86;100.00;96115.81;5057488;28;20311;-43
2022/12/15 12:42:30;;;;;;;;;;;2.10;99.90;;;1.17;100.00;96116.91;5054227;28;19978;-43
2022/12/15 12:44:55;;;;;;;;;;;2.30;99.90;;;1.27;100.00;96116.69;5036439;28;19912;-44
2022/12/15 12:47:30;;;;;;;;;;;2.50;99.90;;;1.53;100.00;96115.31;5056206;28;19912;-45
2022/12/15 12:50:20;;;;;;;;;;;2.70;99.90;;;1.63;100.00;96113.34;5053196;28;20417;-43
2022/12/15 12:52:49;;;;;;;;;;;2.90;99.90;;;1.51;100.00;96112.75;5053483;28;19951;-47
2022/12/15 12:55:28;;;;;;;;;;;2.90;99.90;;;1.66;100.00;96111.53;5056584;28;19943;-46
2022/12/15 12:57:54;;;;;;;;;;;3.00;99.90;;;1.63;100.00;96102.97;5052460;28;20304;-45
2022/12/15 13:00:22;;;;;;;;;;;3.00;99.90;;;1.84;100.00;96107.66;5033934;28;21173;-43
2022/12/15 13:02:51;;;;;;;;;;;2.90;99.90;;;1.75;100.00;96087.09;5055806;28;20401;-43
2022/12/15 13:05:24;;;;;;;;;;;2.90;99.90;;;1.85;100.00;96096.38;5054488;28;19916;-43
2022/12/15 13:08:05;;;;;;;;;;;2.90;99.90;;;1.78;100.00;96101.78;5051547;28;19912;-41
2022/12/15 13:10:33;;;;;;;;;;;2.90;99.90;;;1.76;100.00;96098.31;5056137;28;19908;-44
2022/12/15 13:13:07;;;;;;;;;;;2.90;99.90;;;1.31;100.00;96097.59;5052819;28;19912;-43
2022/12/15 13:15:37;;;;;;;;;;;2.70;99.90;;;1.39;100.00;96104.38;5056447;28;19913;-42
2022/12/15 13:18:10;;;;;;;;;;;2.60;99.90;;;1.11;100.00;96085.03;5051385;28;19962;-42
2022/12/15 13:20:36;;;;;;;;;;;2.50;99.90;;;0.93;100.00;96081.06;5043157;28;19912;-42
2022/12/15 13:23:20;;;;;;;;;;;2.40;99.90;;;0.84;100.00;96089.00;5035329;28;19928;-43
2022/12/15 13:25:51;;;;;;;;;;;2.20;99.90;;;0.84;100.00;96081.22;5053645;28;20084;-43
2022/12/15 13:28:23;;;;;;;;;;;2.10;99.90;;;0.82;100.00;96066.59;5055704;28;19909;-43
2022/12/15 13:31:19;;;;;;;;;;;2.00;99.90;;;0.67;100.00;96062.56;5049280;28;19920;-42
2022/12/15 13:33:48;;;;;;;;;;;1.90;99.90;;;0.67;100.00;96047.00;5052470;28;19956;-42
2022/12/15 13:36:35;;;;;;;;;;;1.80;99.90;;;0.69;100.00;96040.88;5055861;28;19919;-44
2022/12/15 13:39:03;;;;;;;;;;;1.80;99.90;;;0.71;100.00;96039.09;5050643;28;20447;-43
2022/12/15 13:41:29;;;;;;;;;;;1.80;99.90;;;0.66;100.00;96045.25;5050082;28;19913;-42
2022/12/15 13:43:56;;;;;;;;;;;1.80;99.90;;;0.62;100.00;96041.03;5088104;22;19927;-49
2022/12/15 13:46:23;;;;;;;;;;;1.70;99.90;;;0.62;100.00;96041.03;5092303;28;19912;-49
2022/12/15 13:49:03;;;;;;;;;;;1.60;99.90;;;0.45;100.00;96039.63;5079266;28;20440;-48
2022/12/15 13:51:42;;;;;;;;;;;1.50;99.90;;;0.40;100.00;96044.03;5090036;28;20264;-47